Flight Track Log - Related Links

Times and Time Zones

All times are in EDT time to prevent confusion due to time zone crossing. See the N912MF flight status page for this flight to view local times or setup timezone preferences in your user account.


Time Position Orientation Groundspeed Altitude Reporting Facility
EDT Latitude Longitude Course Direction KTS MPH feet Rate Location/Type
Thu 01:19:03 AM 47.4661 -111.3900 254° West 139 160 4,700  Level Salt Lake Center
Thu 01:20:04 AM 47.4556 -111.4442 277° West 139 160 6,500 1,721 Climbing Salt Lake Center
Thu 01:21:05 AM 47.4608 -111.5078 275° West 154 177 8,200 1,770 Climbing Salt Lake Center
Thu 01:22:06 AM 47.4647 -111.5739 277° West 159 183 10,100 1,672 Climbing Salt Lake Center
Thu 01:23:07 AM 47.4703 -111.6453 276° West 166 191 11,600 1,686 Climbing Salt Lake Center
Thu 01:24:07 AM 47.4753 -111.7189 276° West 174 200 13,500 1,785 Climbing Salt Lake Center
Thu 01:25:08 AM 47.4800 -111.7878 276° West 173 199 15,200 1,770 Climbing Salt Lake Center
Thu 01:26:09 AM 47.4850 -111.8564 275° West 171 197 17,100 1,623 Climbing Salt Lake Center
Thu 01:27:10 AM 47.4883 -111.9133 277° West 156 180 18,500 1,240 Climbing Salt Lake Center
Thu 01:28:10 AM 47.4928 -111.9689 278° West 143 165 19,600 744 Climbing Salt Lake Center
Thu 01:29:11 AM 47.4983 -112.0314 274° West 147 169 20,000 197 Climbing Salt Lake Center
Thu 01:30:12 AM 47.5022 -112.1097 278° West 176 203 20,000  Level Salt Lake Center
Thu 01:31:12 AM 47.5097 -112.1933 274° West 196 226 20,000  Level Salt Lake Center
Thu 01:32:13 AM 47.5147 -112.2939 275° West 205 236 20,000  Level Salt Lake Center
Thu 01:33:14 AM 47.5203 -112.3803 275° West 208 239 20,000  Level Salt Lake Center
Thu 01:34:14 AM 47.5253 -112.4667 276° West 210 242 20,000  Level Salt Lake Center
Thu 01:35:15 AM 47.5314 -112.5514 276° West 209 241 20,000  Level Salt Lake Center
Thu 01:36:15 AM 47.5372 -112.6369 276° West 209 241 20,000  Level Salt Lake Center
Thu 01:37:16 AM 47.5428 -112.7225 276° West 210 242 20,000  Level Salt Lake Center
Thu 01:38:17 AM 47.5486 -112.8094 276° West 211 243 20,000  Level Salt Lake Center
Thu 01:39:19 AM 47.5550 -112.8950 275° West 210 242 20,000  Level Salt Lake Center
Thu 01:40:18 AM 47.5600 -112.9806 276° West 210 242 20,000  Level Salt Lake Center
Thu 01:41:18 AM 47.5658 -113.0675 274° West 211 243 20,000  Level Salt Lake Center
Thu 01:42:19 AM 47.5700 -113.1553 275° West 213 245 20,000  Level Salt Lake Center
Thu 01:43:19 AM 47.5747 -113.2428 275° West 213 245 20,000  Level Salt Lake Center
Thu 01:44:20 AM 47.5797 -113.3283 276° West 211 243 20,000  Level Salt Lake Center
Thu 01:45:35 AM 47.5869 -113.4314 275° West 210 242 20,000  Level Salt Lake Center
Thu 01:46:35 AM 47.5919 -113.5200 275° West 212 244 20,000  Level Salt Lake Center
Thu 01:47:36 AM 47.5967 -113.6081 274° West 214 246 20,000  Level Salt Lake Center
Thu 01:48:36 AM 47.6008 -113.6956 274° West 214 246 20,000  Level Salt Lake Center
Thu 01:49:37 AM 47.6050 -113.7853 275° West 216 249 20,000  Level Salt Lake Center
Thu 01:50:37 AM 47.6097 -113.8747 274° West 217 250 20,000  Level Salt Lake Center
Thu 01:51:38 AM 47.6153 -113.9806 275° West 216 249 20,000  Level Salt Lake Center
Thu 01:52:38 AM 47.6200 -114.0686 274° West 215 247 20,000  Level Salt Lake Center
Thu 01:53:39 AM 47.6242 -114.1572 274° West 215 247 20,000  Level Salt Lake Center
Thu 01:54:39 AM 47.6286 -114.2444 274° West 213 245 20,000  Level Salt Lake Center
Thu 01:55:40 AM 47.6328 -114.3333 274° West 215 247 20,000  Level Salt Lake Center
Thu 01:56:40 AM 47.6372 -114.4225 275° West 216 249 20,000  Level Salt Lake Center
Thu 01:57:40 AM 47.6419 -114.5117 274° West 215 247 20,000  Level Salt Lake Center
Thu 01:58:41 AM 47.6458 -114.6006 274° West 216 249 20,000  Level Salt Lake Center
Thu 01:59:41 AM 47.6500 -114.6897 274° West 217 250 20,000  Level Salt Lake Center
Thu 02:00:42 AM 47.6544 -114.7781 273° West 216 249 20,000  Level Salt Lake Center
Thu 02:01:42 AM 47.6578 -114.8686 274° West 218 251 20,000  Level Salt Lake Center
Thu 02:02:43 AM 47.6619 -114.9600 274° West 221 254 20,000  Level Salt Lake Center
Thu 02:03:43 AM 47.6664 -115.0500 274° West 220 253 20,000  Level Salt Lake Center
Thu 02:04:43 AM 47.6706 -115.1397 273° West 219 252 20,000  Level Salt Lake Center
Thu 02:05:44 AM 47.6736 -115.2300 273° West 219 252 20,000  Level Salt Lake Center
Thu 02:06:44 AM 47.6769 -115.3208 274° West 220 253 20,000  Level Salt Lake Center
Thu 02:07:45 AM 47.6811 -115.4119 274° West 221 254 20,000  Level Salt Lake Center
Thu 02:08:45 AM 47.6856 -115.5036 274° West 222 255 20,000  Level Salt Lake Center
Thu 02:09:46 AM 47.6894 -115.5942 273° West 222 255 20,000  Level Salt Lake Center
Thu 02:10:46 AM 47.6928 -115.6853 273° West 222 255 20,000  Level Salt Lake Center
Thu 02:11:47 AM 47.6961 -115.7756 273° West 221 254 20,000  Level Salt Lake Center
Thu 02:12:47 AM 47.6992 -115.8669 270° West 221 254 20,000  Level Salt Lake Center
Thu 02:13:47 AM 47.6992 -115.9569 272° West 221 254 20,000  Level Salt Lake Center
Thu 02:14:48 AM 47.7011 -116.0489 273° West 221 254 20,000  Level Salt Lake Center
Thu 02:15:48 AM 47.7044 -116.1414 273° West 223 257 20,000  Level Salt Lake Center
Thu 02:17:09 AM 47.7092 -116.2697 273° West 224 258 20,000  Level Seattle Center
Thu 02:18:10 AM 47.7122 -116.3631 273° West 225 259 20,000  Level Seattle Center
Thu 02:19:10 AM 47.7156 -116.4558 273° West 226 260 20,000  Level Seattle Center
Thu 02:20:11 AM 47.7189 -116.5481 273° West 225 259 20,000  Level Seattle Center
Thu 02:21:11 AM 47.7219 -116.6406 273° West 225 259 20,000  Level Seattle Center
Thu 02:22:11 AM 47.7250 -116.7325 272° West 224 258 20,000  Level Seattle Center
Thu 02:23:12 AM 47.7275 -116.8258 273° West 226 260 20,000  Level Seattle Center
Thu 02:24:12 AM 47.7303 -116.9181 272° West 226 260 20,000  Level Seattle Center
Thu 02:25:13 AM 47.7328 -117.0106 273° West 226 260 20,000  Level Seattle Center
Thu 02:26:13 AM 47.7356 -117.1022 273° West 226 260 20,000  Level Seattle Center
Thu 02:27:13 AM 47.7383 -117.1950 272° West 228 262 20,000  Level Seattle Center
Thu 02:28:14 AM 47.7403 -117.3069 272° West 228 262 20,000  Level Seattle Center
Thu 02:29:14 AM 47.7419 -117.4003 273° West 228 262 20,000  Level Seattle Center
Thu 02:30:15 AM 47.7447 -117.4961 271° West 231 266 20,000  Level Seattle Center
Thu 02:31:15 AM 47.7461 -117.5903 272° West 230 265 20,000  Level Seattle Center
Thu 02:32:15 AM 47.7478 -117.6847 272° West 230 265 20,000  Level Seattle Center
Thu 02:33:16 AM 47.7503 -117.7803 271° West 231 266 20,000  Level Seattle Center
Thu 02:34:16 AM 47.7511 -117.8758 271° West 231 266 20,000  Level Seattle Center
Thu 02:35:17 AM 47.7519 -117.9711 271° West 233 268 20,000  Level Seattle Center
Thu 02:36:17 AM 47.7533 -118.0667 272° West 232 267 20,000  Level Seattle Center
Thu 02:37:17 AM 47.7550 -118.1614 272° West 231 266 20,000  Level Seattle Center
Thu 02:38:18 AM 47.7567 -118.2578 272° West 233 268 20,000  Level Seattle Center
Thu 02:39:18 AM 47.7589 -118.3542 271° West 234 269 20,000  Level Seattle Center
Thu 02:40:18 AM 47.7603 -118.4514 271° West 236 272 20,000  Level Seattle Center
Thu 02:41:19 AM 47.7611 -118.5472 271° West 234 269 20,000  Level Seattle Center
Thu 02:42:19 AM 47.7625 -118.6439 271° West 235 270 20,000  Level Seattle Center
Thu 02:43:19 AM 47.7631 -118.7408 271° West 236 272 20,000  Level Seattle Center
Thu 02:44:20 AM 47.7636 -118.8386 271° West 236 272 20,000  Level Seattle Center
Thu 02:45:20 AM 47.7644 -118.9375 271° West 239 275 20,000  Level Seattle Center
Thu 02:46:20 AM 47.7656 -119.0356 271° West 239 275 20,000  Level Seattle Center
Thu 02:47:21 AM 47.7667 -119.1344 270° West 239 275 20,000  Level Seattle Center
Thu 02:48:21 AM 47.7669 -119.2331 271° West 239 275 20,000  Level Seattle Center
Thu 02:49:21 AM 47.7681 -119.3306 270° West 239 275 20,000  Level Seattle Center
Thu 02:50:21 AM 47.7675 -119.4294 271° West 239 275 20,000  Level Seattle Center
Thu 02:51:22 AM 47.7681 -119.5261 270° West 236 272 20,000  Level Seattle Center
Thu 02:52:22 AM 47.7683 -119.6231 271° West 235 270 20,000  Level Seattle Center
Thu 02:53:22 AM 47.7689 -119.7200 270° West 234 269 20,000  Level Seattle Center
Thu 02:54:23 AM 47.7686 -119.8144 270° West 233 268 20,000  Level Seattle Center
Thu 02:55:23 AM 47.7686 -119.9089 269° West 229 264 20,000  Level Seattle Center
Thu 02:56:23 AM 47.7675 -120.0033 271° West 230 265 20,000  Level Seattle Center
Thu 02:57:23 AM 47.7689 -120.0989 270° West 231 266 20,000  Level Seattle Center
Thu 02:58:24 AM 47.7683 -120.2131 270° West 231 266 20,000  Level Seattle Center
Thu 02:59:24 AM 47.7678 -120.3083 270° West 231 266 20,000  Level Seattle Center
Thu 03:00:24 AM 47.7681 -120.4019 269° West 229 264 20,000  Level Seattle Center
Thu 03:01:25 AM 47.7669 -120.4981 270° West 231 266 20,000  Level Seattle Center
Thu 03:02:25 AM 47.7664 -120.5911 269° West 229 264 20,000 -300 Level Seattle Center
Thu 03:03:25 AM 47.7653 -120.6856 270° West 228 262 19,400 -800 Descending Seattle Center
Thu 03:04:25 AM 47.7653 -120.7878 269° West 243 280 18,400 -992 Descending Seattle Center
Thu 03:05:26 AM 47.7644 -120.8803 271° West 248 285 17,400 -1,041 Descending Seattle Center
Thu 03:06:26 AM 47.7653 -120.9844 270° West 254 292 16,300 -1,000 Descending Seattle Center
Thu 03:07:26 AM 47.7647 -121.0894 270° West 257 296 15,400 -1,000 Descending Seattle Center
Thu 03:07:56 AM 47.7650 -121.1550 270° West 258 297 14,800 -900 Descending Seattle Center
Thu 03:08:26 AM 47.7650 -121.1944 268° West 257 296 14,500 -1,377 Descending Seattle Center
Thu 03:08:57 AM 47.7636 -121.2683 266° West 258 297 13,400 -1,475 Descending Seattle Center
Thu 03:09:27 AM 47.7622 -121.3008 269° West 259 298 13,000 -1,267 Descending Seattle Center
Thu 03:10:27 AM 47.7614 -121.4083 254° West 263 303 11,500 -1,500 Descending Seattle Center
Thu 03:11:27 AM 47.7375 -121.5292 250° West 264 304 10,000 -800 Descending Seattle Center
Thu 03:12:27 AM 47.7142 -121.6242 248° West 246 283 9,900 -300 Descending Seattle Center
Thu 03:13:27 AM 47.6892 -121.7150 251° West 240 276 9,400 -843 Descending Seattle Center
Thu 03:14:28 AM 47.6658 -121.8172 261° West 262 302 8,200 -1,140 Descending Seattle Center
Thu 03:15:28 AM 47.6539 -121.9228 257° West 262 302 7,100 -1,150 Descending Seattle Center
Thu 03:16:28 AM 47.6397 -122.0153 259° West 239 275 5,900 -1,350 Descending Seattle Center
Thu 03:17:28 AM 47.6261 -122.1153 276° West 231 266 4,400 -1,404 Descending Seattle Center
Thu 03:18:02 AM 47.6300 -122.1664 285° West 236 272 3,700 -1,326 Descending Seattle Center
Thu 03:19:03 AM 47.6461 -122.2561 276° West 232 267 2,300 -843 Descending Seattle Center
Thu 03:20:03 AM 47.6519 -122.3417 215° Southwest 210 242 2,000 -248 Descending Seattle Center
Thu 03:21:04 AM 47.6186 -122.3767 153° Southeast 162 186 1,800 -397 Descending Seattle Center
Thu 03:22:04 AM 47.5831 -122.3503 148° Southeast 141 162 1,200 -645 Descending Seattle Center
Thu 03:23:05 AM 47.5542 -122.3236 152° Southeast 134 154 500 -452 Descending Seattle Center
Thu 03:24:30 AM 47.5167 -122.2939 152° Southeast 118 136 100 -282 Descending Seattle Center

Login

Don't have an account? Register now (free) for customized features, flight alerts, and more!